Time;durP1;ratioP1;P1;durP2;ratioP2;P2;SDS_P1;SDS_P2;PMS_P1;PMS_P2;Temp;Humidity;BMP_temperature;BMP_pressure;BME280_temperature;BME280_humidity;BME280_pressure;Samples;Min_cycle;Max_cycle;Signal;HPM_P1;HPM_P2
2024/02/28 00:02:04;;;;;;;67.18;23.98;;;;;;;;;;5050978;28;20033;-57
2024/02/28 00:04:29;;;;;;;59.30;22.83;;;;;;;;;;5052023;28;20037;-54
2024/02/28 00:06:55;;;;;;;61.67;23.13;;;;;;;;;;5054691;28;20056;-57
2024/02/28 00:09:20;;;;;;;62.90;22.83;;;;;;;;;;5056000;28;20026;-58
2024/02/28 00:11:46;;;;;;;72.05;24.23;;;;;;;;;;5050421;28;20113;-57
2024/02/28 00:14:12;;;;;;;60.75;22.52;;;;;;;;;;5051777;28;20059;-56
2024/02/28 00:16:41;;;;;;;65.28;23.67;;;;;;;;;;5050041;28;20094;-57
2024/02/28 00:19:07;;;;;;;64.97;23.05;;;;;;;;;;5051061;28;20048;-56
2024/02/28 00:21:33;;;;;;;59.80;22.67;;;;;;;;;;5051211;28;20032;-58
2024/02/28 00:23:58;;;;;;;65.80;23.67;;;;;;;;;;5051202;28;20093;-55
2024/02/28 00:26:25;;;;;;;57.33;20.83;;;;;;;;;;5049226;28;20030;-56
2024/02/28 00:28:50;;;;;;;59.75;24.17;;;;;;;;;;5050960;28;20053;-57
2024/02/28 00:31:16;;;;;;;62.27;22.97;;;;;;;;;;5050154;28;20040;-56
2024/02/28 00:33:41;;;;;;;68.67;24.50;;;;;;;;;;5051408;28;20049;-59
2024/02/28 00:36:07;;;;;;;61.90;22.30;;;;;;;;;;5056373;28;20342;-54
2024/02/28 00:38:32;;;;;;;48.67;19.08;;;;;;;;;;5050860;28;20037;-57
2024/02/28 00:40:58;;;;;;;64.67;21.97;;;;;;;;;;5051114;28;20089;-56
2024/02/28 00:43:23;;;;;;;66.77;25.10;;;;;;;;;;5050806;28;20053;-57
2024/02/28 00:45:49;;;;;;;72.32;24.95;;;;;;;;;;5050271;28;20038;-56
2024/02/28 00:48:14;;;;;;;83.07;30.73;;;;;;;;;;5047189;28;20029;-57
2024/02/28 00:50:40;;;;;;;70.37;25.53;;;;;;;;;;5050358;28;20029;-57
2024/02/28 00:53:05;;;;;;;72.13;25.43;;;;;;;;;;5049400;28;20029;-54
2024/02/28 00:55:30;;;;;;;71.00;25.93;;;;;;;;;;5049577;28;20037;-56
2024/02/28 00:57:56;;;;;;;71.53;24.77;;;;;;;;;;5047717;28;20081;-57
2024/02/28 01:00:21;;;;;;;70.00;26.17;;;;;;;;;;5049135;28;20049;-55
2024/02/28 01:02:47;;;;;;;68.93;25.33;;;;;;;;;;5049400;28;20060;-59
2024/02/28 01:05:12;;;;;;;60.60;23.27;;;;;;;;;;5049749;28;20262;-55
2024/02/28 01:07:38;;;;;;;69.50;25.25;;;;;;;;;;5047828;28;20117;-57
2024/02/28 01:10:04;;;;;;;68.90;26.57;;;;;;;;;;5050757;28;20033;-55
2024/02/28 01:12:29;;;;;;;68.00;25.27;;;;;;;;;;5048682;28;20975;-57
2024/02/28 01:14:54;;;;;;;65.47;24.03;;;;;;;;;;5051575;28;20091;-57
2024/02/28 01:17:20;;;;;;;49.23;18.33;;;;;;;;;;5048261;28;20117;-56
2024/02/28 01:19:45;;;;;;;76.05;26.98;;;;;;;;;;5048022;28;20025;-58
2024/02/28 01:22:11;;;;;;;61.27;23.63;;;;;;;;;;5049211;28;20032;-57
2024/02/28 01:24:36;;;;;;;61.20;24.03;;;;;;;;;;5049618;28;20834;-55
2024/02/28 01:27:02;;;;;;;66.88;25.33;;;;;;;;;;5049802;28;20037;-58
2024/02/28 01:29:28;;;;;;;65.00;24.85;;;;;;;;;;5048495;28;20085;-55
2024/02/28 01:31:53;;;;;;;56.23;23.17;;;;;;;;;;5048986;28;20022;-56
2024/02/28 01:34:18;;;;;;;56.43;23.90;;;;;;;;;;5048101;28;20029;-55
2024/02/28 01:36:44;;;;;;;65.35;24.77;;;;;;;;;;5048027;28;20101;-57
2024/02/28 01:39:09;;;;;;;57.83;21.53;;;;;;;;;;5048837;28;20030;-58
2024/02/28 01:41:34;;;;;;;43.53;17.17;;;;;;;;;;5048811;28;20026;-56
2024/02/28 01:44:00;;;;;;;47.27;19.77;;;;;;;;;;5063432;28;20025;-57
2024/02/28 01:46:27;;;;;;;58.88;23.63;;;;;;;;;;5050357;28;20045;-56
2024/02/28 01:48:52;;;;;;;;;;;;;;;;;;5050443;28;20040;-56
2024/02/28 01:51:18;;;;;;;53.63;20.10;;;;;;;;;;5049537;28;19909;-53
2024/02/28 01:53:45;;;;;;;48.72;20.58;;;;;;;;;;5049112;28;20044;-57
2024/02/28 01:56:11;;;;;;;58.35;23.08;;;;;;;;;;5053717;28;20056;-55
2024/02/28 01:58:37;;;;;;;61.05;21.33;;;;;;;;;;5057360;28;20034;-57
2024/02/28 02:01:03;;;;;;;92.10;21.67;;;;;;;;;;5057280;28;20033;-59
2024/02/28 02:03:28;;;;;;;45.40;19.02;;;;;;;;;;5055437;28;20286;-54
2024/02/28 02:05:54;;;;;;;42.83;18.33;;;;;;;;;;5053711;28;20032;-56
2024/02/28 02:08:19;;;;;;;39.83;18.13;;;;;;;;;;5052719;28;20250;-55
2024/02/28 02:10:45;;;;;;;53.15;17.42;;;;;;;;;;5053261;28;20030;-55
2024/02/28 02:13:11;;;;;;;34.43;16.07;;;;;;;;;;5054075;28;20033;-56
2024/02/28 02:15:38;;;;;;;37.20;15.43;;;;;;;;;;5053185;28;20045;-57
2024/02/28 02:18:04;;;;;;;38.40;15.98;;;;;;;;;;5053227;28;20037;-55
2024/02/28 02:20:32;;;;;;;35.70;17.33;;;;;;;;;;5052600;28;20064;-57
2024/02/28 02:22:58;;;;;;;45.00;20.10;;;;;;;;;;5053142;28;20040;-55
2024/02/28 02:25:24;;;;;;;40.45;16.58;;;;;;;;;;5053241;28;20085;-57
2024/02/28 02:27:49;;;;;;;46.83;19.20;;;;;;;;;;5052988;28;20041;-56
2024/02/28 02:30:15;;;;;;;43.25;19.25;;;;;;;;;;5055344;28;20048;-53
2024/02/28 02:32:40;;;;;;;41.73;18.93;;;;;;;;;;5053202;28;20038;-55
2024/02/28 02:35:05;;;;;;;47.40;21.20;;;;;;;;;;5051627;28;20041;-55
2024/02/28 02:37:30;;;;;;;40.13;18.27;;;;;;;;;;5051436;28;20133;-58
2024/02/28 02:39:56;;;;;;;35.08;17.98;;;;;;;;;;5052825;28;20061;-55
2024/02/28 02:42:21;;;;;;;39.90;18.83;;;;;;;;;;5052838;28;20037;-57
2024/02/28 02:44:47;;;;;;;40.83;18.37;;;;;;;;;;5054370;28;20266;-58
2024/02/28 02:47:12;;;;;;;41.77;18.03;;;;;;;;;;5054158;28;20037;-57
2024/02/28 02:49:37;;;;;;;35.47;17.67;;;;;;;;;;5052052;28;20033;-57
2024/02/28 02:52:03;;;;;;;33.50;15.20;;;;;;;;;;5051470;28;20048;-56
2024/02/28 02:54:28;;;;;;;40.10;18.40;;;;;;;;;;5052835;28;20104;-54
2024/02/28 02:56:54;;;;;;;38.03;17.60;;;;;;;;;;5051323;28;20278;-58
2024/02/28 02:59:21;;;;;;;35.10;17.40;;;;;;;;;;5050861;28;20026;-58
2024/02/28 03:01:46;;;;;;;39.63;17.80;;;;;;;;;;5052668;28;20021;-56
2024/02/28 03:04:12;;;;;;;35.57;17.73;;;;;;;;;;5052004;28;20081;-58
2024/02/28 03:06:37;;;;;;;33.37;17.53;;;;;;;;;;5051176;28;20093;-57
2024/02/28 03:09:03;;;;;;;33.65;17.08;;;;;;;;;;5051779;28;20037;-56
2024/02/28 03:11:28;;;;;;;31.40;16.40;;;;;;;;;;5060501;28;20056;-55
2024/02/28 03:13:54;;;;;;;48.47;16.13;;;;;;;;;;5056744;28;20037;-57
2024/02/28 03:16:20;;;;;;;32.85;15.50;;;;;;;;;;5054616;28;20033;-57
2024/02/28 03:18:45;;;;;;;35.33;16.17;;;;;;;;;;5056746;28;20029;-56
2024/02/28 03:21:10;;;;;;;36.00;17.17;;;;;;;;;;5054895;28;20266;-55
2024/02/28 03:23:36;;;;;;;32.30;16.58;;;;;;;;;;5054787;28;21725;-55
2024/02/28 03:26:03;;;;;;;33.07;17.20;;;;;;;;;;5054011;28;20030;-56
2024/02/28 03:28:28;;;;;;;32.42;16.35;;;;;;;;;;5052882;28;20029;-56
2024/02/28 03:30:54;;;;;;;31.50;15.68;;;;;;;;;;5052961;28;20037;-57
2024/02/28 03:33:19;;;;;;;39.70;17.50;;;;;;;;;;5051865;28;20034;-55
2024/02/28 03:35:45;;;;;;;44.00;17.27;;;;;;;;;;5052870;28;20034;-57
2024/02/28 03:38:10;;;;;;;42.40;19.13;;;;;;;;;;5050961;28;20030;-56
2024/02/28 03:40:36;;;;;;;34.40;16.50;;;;;;;;;;5051971;28;20093;-58
2024/02/28 03:43:01;;;;;;;30.80;16.20;;;;;;;;;;5052690;28;20040;-57
2024/02/28 03:45:28;;;;;;;40.40;17.80;;;;;;;;;;5052063;28;20096;-57
2024/02/28 03:47:54;;;;;;;36.40;17.40;;;;;;;;;;5051178;28;20043;-56
2024/02/28 03:50:19;;;;;;;38.47;17.70;;;;;;;;;;5051220;28;20044;-57
2024/02/28 03:52:45;;;;;;;33.57;17.83;;;;;;;;;;5050785;28;20275;-58
2024/02/28 03:55:10;;;;;;;35.03;17.73;;;;;;;;;;5051324;28;20060;-57
2024/02/28 03:57:36;;;;;;;32.80;16.93;;;;;;;;;;5050847;28;20266;-57
2024/02/28 04:00:02;;;;;;;36.13;17.13;;;;;;;;;;5051461;28;20040;-55
2024/02/28 04:02:37;;;;;;;31.38;15.38;;;;;;;;;;5051086;28;20044;-58
2024/02/28 04:05:03;;;;;;;31.20;15.90;;;;;;;;;;5052186;28;20025;-56
2024/02/28 04:07:28;;;;;;;26.33;14.23;;;;;;;;;;5051586;28;20052;-56
2024/02/28 04:09:53;;;;;;;29.83;14.90;;;;;;;;;;5050300;28;20037;-56
2024/02/28 04:12:19;;;;;;;30.13;14.50;;;;;;;;;;5050857;28;20357;-58
2024/02/28 04:14:45;;;;;;;30.45;15.18;;;;;;;;;;5051248;28;20044;-57
2024/02/28 04:17:10;;;;;;;30.77;15.90;;;;;;;;;;5051693;28;20037;-56
2024/02/28 04:19:37;;;;;;;29.33;15.60;;;;;;;;;;5050719;28;20038;-58
2024/02/28 04:22:03;;;;;;;27.08;14.05;;;;;;;;;;5049905;28;20061;-58
2024/02/28 04:24:28;;;;;;;33.27;14.87;;;;;;;;;;5051435;28;20021;-57
2024/02/28 04:26:54;;;;;;;26.23;13.93;;;;;;;;;;5051830;28;20036;-56
2024/02/28 04:29:19;;;;;;;28.43;15.40;;;;;;;;;;5050655;28;20340;-58
2024/02/28 04:31:45;;;;;;;28.07;13.90;;;;;;;;;;5050938;28;20022;-57
2024/02/28 04:34:10;;;;;;;25.90;14.43;;;;;;;;;;5049750;28;20256;-56
2024/02/28 04:36:36;;;;;;;27.53;15.20;;;;;;;;;;5050718;28;20282;-58
2024/02/28 04:39:01;;;;;;;36.67;14.97;;;;;;;;;;5052237;28;20030;-55
2024/02/28 04:41:27;;;;;;;40.90;15.18;;;;;;;;;;5051143;28;20068;-56
2024/02/28 04:43:53;;;;;;;31.80;15.65;;;;;;;;;;5053425;28;20345;-56
2024/02/28 04:46:18;;;;;;;30.85;14.18;;;;;;;;;;5055152;28;20056;-58
2024/02/28 04:48:44;;;;;;;31.70;15.43;;;;;;;;;;5055390;28;20037;-58
2024/02/28 04:51:09;;;;;;;29.50;14.93;;;;;;;;;;5055075;28;20748;-55
2024/02/28 04:53:35;;;;;;;30.93;14.83;;;;;;;;;;5053130;28;20060;-58
2024/02/28 04:56:00;;;;;;;33.50;15.00;;;;;;;;;;5056153;28;20033;-56
2024/02/28 04:58:26;;;;;;;30.40;14.93;;;;;;;;;;5053058;28;20060;-53
2024/02/28 05:00:52;;;;;;;26.80;13.50;;;;;;;;;;5053753;28;20025;-56
2024/02/28 05:03:18;;;;;;;28.30;13.85;;;;;;;;;;5055448;28;20048;-54
2024/02/28 05:05:43;;;;;;;30.27;14.60;;;;;;;;;;5053277;28;20049;-58
2024/02/28 05:08:09;;;;;;;28.27;13.80;;;;;;;;;;5056085;28;20207;-57
2024/02/28 05:10:34;;;;;;;30.57;15.30;;;;;;;;;;5052714;28;20034;-55
2024/02/28 05:12:59;;;;;;;28.63;13.27;;;;;;;;;;5052720;28;20279;-56
2024/02/28 05:15:25;;;;;;;25.67;13.50;;;;;;;;;;5052929;28;20068;-56
2024/02/28 05:17:52;;;;;;;27.57;13.97;;;;;;;;;;5054350;28;20038;-58
2024/02/28 05:20:18;;;;;;;26.48;14.10;;;;;;;;;;5053786;28;20037;-57
2024/02/28 05:22:43;;;;;;;23.47;12.00;;;;;;;;;;5055429;28;20064;-57
2024/02/28 05:25:09;;;;;;;25.97;13.43;;;;;;;;;;5050638;28;20323;-54
2024/02/28 05:27:34;;;;;;;28.23;14.90;;;;;;;;;;5054244;28;20021;-55
2024/02/28 05:30:01;;;;;;;27.60;13.13;;;;;;;;;;5059164;28;20265;-54
2024/02/28 05:32:27;;;;;;;24.77;13.07;;;;;;;;;;5057485;28;20033;-57
2024/02/28 05:34:52;;;;;;;24.30;13.47;;;;;;;;;;5055693;28;20052;-58
2024/02/28 05:37:18;;;;;;;28.00;14.50;;;;;;;;;;5060642;28;20262;-57
2024/02/28 05:39:43;;;;;;;25.07;14.53;;;;;;;;;;5054704;28;20029;-57
2024/02/28 05:42:09;;;;;;;28.07;15.27;;;;;;;;;;5056222;28;20271;-57
2024/02/28 05:44:34;;;;;;;28.80;14.20;;;;;;;;;;5057360;28;20032;-55
2024/02/28 05:47:00;;;;;;;29.60;15.27;;;;;;;;;;5058365;28;20025;-57
2024/02/28 05:49:25;;;;;;;28.88;15.85;;;;;;;;;;5056179;28;20064;-58
2024/02/28 05:51:51;;;;;;;38.53;15.83;;;;;;;;;;5060046;28;20143;-58
2024/02/28 05:54:16;;;;;;;27.10;15.60;;;;;;;;;;5060443;28;20078;-57
2024/02/28 05:56:42;;;;;;;31.20;18.58;;;;;;;;;;5053572;28;20058;-57
2024/02/28 05:59:07;;;;;;;41.10;18.17;;;;;;;;;;5055211;28;20056;-56
2024/02/28 06:01:33;;;;;;;31.37;16.77;;;;;;;;;;5054268;28;20266;-55
2024/02/28 06:03:58;;;;;;;32.87;16.93;;;;;;;;;;5058342;28;20021;-51
2024/02/28 06:06:25;;;;;;;34.78;16.05;;;;;;;;;;5056965;28;20041;-57
2024/02/28 06:08:51;;;;;;;33.17;17.48;;;;;;;;;;5054557;28;20063;-57
2024/02/28 06:11:16;;;;;;;33.03;19.00;;;;;;;;;;5054663;28;20116;-57
2024/02/28 06:13:42;;;;;;;34.55;17.35;;;;;;;;;;5054664;28;20044;-57
2024/02/28 06:16:07;;;;;;;38.03;17.47;;;;;;;;;;5057023;28;20052;-57
2024/02/28 06:18:33;;;;;;;82.50;20.53;;;;;;;;;;5055341;28;20124;-52
2024/02/28 06:20:58;;;;;;;32.67;15.68;;;;;;;;;;5056214;28;20076;-54
2024/02/28 06:23:24;;;;;;;36.83;19.27;;;;;;;;;;5053896;28;20539;-56
2024/02/28 06:25:50;;;;;;;38.70;20.40;;;;;;;;;;5056838;28;20041;-57
2024/02/28 06:28:15;;;;;;;37.25;20.33;;;;;;;;;;5055464;28;20040;-56
2024/02/28 06:30:41;;;;;;;35.10;20.30;;;;;;;;;;5054063;28;20113;-57
2024/02/28 06:33:08;;;;;;;39.65;19.90;;;;;;;;;;5057196;28;20037;-57
2024/02/28 06:35:34;;;;;;;43.22;21.02;;;;;;;;;;5052043;28;20096;-56
2024/02/28 06:37:59;;;;;;;39.53;20.97;;;;;;;;;;5056519;28;20018;-56
2024/02/28 06:40:25;;;;;;;41.33;21.50;;;;;;;;;;5057957;28;20038;-56
2024/02/28 06:42:50;;;;;;;38.30;20.43;;;;;;;;;;5055652;28;20080;-58
2024/02/28 06:45:15;;;;;;;44.67;21.67;;;;;;;;;;5054848;28;20056;-55
2024/02/28 06:47:41;;;;;;;41.42;22.45;;;;;;;;;;5055320;28;20017;-57
2024/02/28 06:50:07;;;;;;;47.97;23.27;;;;;;;;;;5057164;28;20041;-55
2024/02/28 06:52:34;;;;;;;46.75;22.02;;;;;;;;;;5054586;28;20634;-56
2024/02/28 06:55:02;;;;;;;45.30;22.45;;;;;;;;;;5054660;28;20045;-55
2024/02/28 06:57:28;;;;;;;43.78;22.48;;;;;;;;;;5056257;28;20057;-56
2024/02/28 06:59:54;;;;;;;48.37;24.33;;;;;;;;;;5052758;28;20029;-56
2024/02/28 07:02:19;;;;;;;44.17;21.53;;;;;;;;;;5053622;28;20267;-57
2024/02/28 07:04:45;;;;;;;40.60;22.53;;;;;;;;;;5055759;28;20066;-52
2024/02/28 07:07:11;;;;;;;48.25;23.20;;;;;;;;;;5054015;28;20273;-56
2024/02/28 07:09:37;;;;;;;46.00;22.47;;;;;;;;;;5054955;28;20033;-58
2024/02/28 07:12:03;;;;;;;43.13;20.23;;;;;;;;;;5054938;28;20293;-58
2024/02/28 07:14:28;;;;;;;45.08;22.50;;;;;;;;;;5053798;28;20053;-59
2024/02/28 07:16:54;;;;;;;38.10;20.23;;;;;;;;;;5051550;28;20045;-56
2024/02/28 07:19:20;;;;;;;34.70;16.95;;;;;;;;;;5050267;28;20040;-57
2024/02/28 07:21:45;;;;;;;51.67;22.50;;;;;;;;;;5045530;28;20067;-55
2024/02/28 07:24:11;;;;;;;44.50;21.23;;;;;;;;;;5051612;28;20104;-57
2024/02/28 07:26:37;;;;;;;48.83;23.13;;;;;;;;;;5052229;28;20030;-58
2024/02/28 07:29:03;;;;;;;51.67;22.48;;;;;;;;;;5051348;28;20089;-55
2024/02/28 07:31:28;;;;;;;44.47;22.03;;;;;;;;;;5051103;28;20036;-57
2024/02/28 07:33:54;;;;;;;44.60;21.60;;;;;;;;;;5053192;28;20266;-56
2024/02/28 07:36:20;;;;;;;39.03;20.63;;;;;;;;;;5050478;28;20176;-56
2024/02/28 07:38:46;;;;;;;44.75;21.38;;;;;;;;;;5055289;28;20305;-57
2024/02/28 07:41:12;;;;;;;40.22;22.10;;;;;;;;;;5051719;28;20033;-55
2024/02/28 07:43:37;;;;;;;47.92;21.00;;;;;;;;;;5052125;28;20032;-55
2024/02/28 07:46:08;;;;;;;45.78;22.10;;;;;;;;;;5053197;28;20033;-57
2024/02/28 07:48:33;;;;;;;42.92;20.80;;;;;;;;;;5055278;28;20033;-55
2024/02/28 07:50:58;;;;;;;42.50;21.20;;;;;;;;;;5055758;28;20055;-58
2024/02/28 07:53:24;;;;;;;48.43;21.37;;;;;;;;;;5053860;28;20038;-57
2024/02/28 07:55:50;;;;;;;39.63;20.63;;;;;;;;;;5054304;28;20029;-58
2024/02/28 07:58:16;;;;;;;45.78;20.85;;;;;;;;;;5053141;28;20117;-55
2024/02/28 08:00:43;;;;;;;46.05;20.75;;;;;;;;;;5053331;28;20017;-58
2024/02/28 08:03:09;;;;;;;40.38;21.20;;;;;;;;;;5057607;28;20029;-57
2024/02/28 08:05:38;;;;;;;41.95;20.40;;;;;;;;;;5054696;28;20026;-56
2024/02/28 08:08:07;;;;;;;46.35;22.13;;;;;;;;;;5055064;28;20041;-57
2024/02/28 08:10:35;;;;;;;42.75;22.13;;;;;;;;;;5049879;28;20029;-58
2024/02/28 08:13:00;;;;;;;43.83;21.52;;;;;;;;;;5057777;28;20068;-58
2024/02/28 08:15:25;;;;;;;48.37;23.13;;;;;;;;;;5051343;28;20041;-57
2024/02/28 08:17:51;;;;;;;43.73;22.10;;;;;;;;;;5053441;28;20270;-57
2024/02/28 08:20:16;;;;;;;49.63;23.30;;;;;;;;;;5048000;28;20033;-57
2024/02/28 08:22:42;;;;;;;46.73;22.90;;;;;;;;;;5048867;28;20270;-55
2024/02/28 08:25:11;;;;;;;41.80;20.67;;;;;;;;;;5051962;28;20033;-58
2024/02/28 08:27:37;;;;;;;49.67;22.90;;;;;;;;;;5048058;28;20052;-56
2024/02/28 08:30:02;;;;;;;49.53;23.10;;;;;;;;;;5046731;28;20041;-57
2024/02/28 08:32:28;;;;;;;49.60;23.75;;;;;;;;;;5050038;28;20029;-55
2024/02/28 08:34:54;;;;;;;45.08;21.20;;;;;;;;;;5047031;28;20037;-57
2024/02/28 08:37:20;;;;;;;42.72;21.90;;;;;;;;;;5046076;28;20025;-59
2024/02/28 08:39:45;;;;;;;43.87;21.80;;;;;;;;;;5049574;28;20072;-56
2024/02/28 08:42:11;;;;;;;48.47;21.73;;;;;;;;;;5047026;28;20469;-55
2024/02/28 08:44:37;;;;;;;49.05;22.42;;;;;;;;;;5049752;28;20064;-59
2024/02/28 08:47:02;;;;;;;49.40;23.47;;;;;;;;;;5049473;28;20033;-58
2024/02/28 08:49:28;;;;;;;42.13;23.00;;;;;;;;;;5047344;28;20085;-58
2024/02/28 08:51:53;;;;;;;45.00;22.13;;;;;;;;;;5048062;28;20266;-55
2024/02/28 08:54:19;;;;;;;45.07;21.50;;;;;;;;;;5051026;28;20036;-57
2024/02/28 08:56:44;;;;;;;42.83;21.90;;;;;;;;;;5049432;28;20321;-58
2024/02/28 08:59:09;;;;;;;42.90;22.27;;;;;;;;;;5051104;28;20025;-57
2024/02/28 09:01:36;;;;;;;47.22;22.42;;;;;;;;;;5051554;28;20049;-56
2024/02/28 09:04:03;;;;;;;44.05;22.73;;;;;;;;;;5050750;28;20029;-57
2024/02/28 09:06:29;;;;;;;43.80;21.80;;;;;;;;;;5053592;28;20033;-57
2024/02/28 09:08:55;;;;;;;47.17;24.03;;;;;;;;;;5054298;28;20040;-53
2024/02/28 09:11:20;;;;;;;47.37;22.60;;;;;;;;;;5053623;28;20298;-57
2024/02/28 09:13:46;;;;;;;50.00;23.40;;;;;;;;;;5054690;28;20041;-57
2024/02/28 09:16:11;;;;;;;46.17;23.20;;;;;;;;;;5054440;28;20302;-57
2024/02/28 09:18:37;;;;;;;47.35;22.05;;;;;;;;;;5056125;28;20030;-56
2024/02/28 09:21:02;;;;;;;44.63;21.07;;;;;;;;;;5054267;28;20045;-58
2024/02/28 09:23:28;;;;;;;47.70;23.13;;;;;;;;;;5055126;28;20029;-56
2024/02/28 09:25:54;;;;;;;51.30;23.20;;;;;;;;;;5053251;28;20296;-59
2024/02/28 09:28:19;;;;;;;54.13;22.77;;;;;;;;;;5054414;28;20187;-59
2024/02/28 09:30:47;;;;;;;54.73;24.17;;;;;;;;;;5053290;28;20029;-53
2024/02/28 09:33:13;;;;;;;43.55;22.30;;;;;;;;;;5052507;28;20099;-54
2024/02/28 09:35:39;;;;;;;50.63;22.75;;;;;;;;;;5052532;28;20040;-54
2024/02/28 09:38:05;;;;;;;47.60;22.55;;;;;;;;;;5053388;28;20030;-58
2024/02/28 09:40:30;;;;;;;54.92;23.67;;;;;;;;;;5052225;28;20030;-54
2024/02/28 09:43:03;;;;;;;49.10;21.92;;;;;;;;;;5053441;28;20148;-56
2024/02/28 09:45:30;;;;;;;47.47;20.10;;;;;;;;;;5052549;28;20040;-57
2024/02/28 09:47:59;;;;;;;44.85;20.15;;;;;;;;;;5050310;28;20033;-57
2024/02/28 09:50:26;;;;;;;48.10;21.67;;;;;;;;;;5053834;28;20049;-55
2024/02/28 09:52:52;;;;;;;39.58;20.48;;;;;;;;;;5054013;28;20029;-54
2024/02/28 09:55:18;;;;;;;52.22;22.50;;;;;;;;;;5053862;28;20040;-54
2024/02/28 09:57:47;;;;;;;48.87;22.13;;;;;;;;;;5050594;28;20093;-54
2024/02/28 10:00:13;;;;;;;45.80;20.75;;;;;;;;;;5053490;28;20250;-58
2024/02/28 10:02:40;;;;;;;38.90;20.55;;;;;;;;;;5050645;28;20025;-58
2024/02/28 10:05:07;;;;;;;48.25;20.60;;;;;;;;;;5052481;28;20029;-58
2024/02/28 10:07:33;;;;;;;49.53;21.10;;;;;;;;;;5052419;28;20044;-56
2024/02/28 10:09:58;;;;;;;44.70;21.90;;;;;;;;;;5053005;28;20037;-57
2024/02/28 10:12:25;;;;;;;57.85;22.88;;;;;;;;;;5052887;28;20124;-57
2024/02/28 10:14:51;;;;;;;44.38;20.73;;;;;;;;;;5051475;28;20037;-59
2024/02/28 10:17:17;;;;;;;45.40;20.75;;;;;;;;;;5052823;28;20317;-58
2024/02/28 10:19:42;;;;;;;46.77;21.23;;;;;;;;;;5052970;28;20030;-55
2024/02/28 10:22:09;;;;;;;45.45;21.30;;;;;;;;;;5051816;28;20030;-58
2024/02/28 10:24:34;;;;;;;;;;;;;;;;;;5051760;28;20033;-58
2024/02/28 10:27:03;;;;;;;44.17;19.67;;;;;;;;;;5065990;28;19947;-58
2024/02/28 10:29:29;;;;;;;44.17;20.25;;;;;;;;;;5052627;28;20044;-55
2024/02/28 10:31:55;;;;;;;49.13;22.00;;;;;;;;;;5052163;28;20067;-57
2024/02/28 10:34:20;;;;;;;40.83;20.57;;;;;;;;;;5052843;28;20034;-58
2024/02/28 10:36:46;;;;;;;42.78;20.38;;;;;;;;;;5051907;28;20029;-56
2024/02/28 10:39:13;;;;;;;59.55;22.48;;;;;;;;;;5051963;28;20096;-58
2024/02/28 10:41:39;;;;;;;40.47;18.83;;;;;;;;;;5050968;28;20048;-61
2024/02/28 10:44:05;;;;;;;47.60;19.63;;;;;;;;;;5053011;28;20061;-56
2024/02/28 10:46:31;;;;;;;46.75;20.75;;;;;;;;;;5049748;28;20045;-57
2024/02/28 10:48:57;;;;;;;45.47;20.67;;;;;;;;;;5052330;28;20141;-59
2024/02/28 10:51:25;;;;;;;47.80;20.58;;;;;;;;;;5051876;28;20044;-57
2024/02/28 10:54:13;;;;;;;47.40;20.42;;;;;;;;;;5053539;28;20060;-57
2024/02/28 10:56:41;;;;;;;48.88;21.00;;;;;;;;;;5051505;28;20053;-59
2024/02/28 10:59:08;;;;;;;46.60;21.37;;;;;;;;;;5051573;28;20283;-57
2024/02/28 11:01:35;;;;;;;44.55;20.63;;;;;;;;;;5051596;28;20263;-59
2024/02/28 11:04:00;;;;;;;41.87;20.53;;;;;;;;;;5051566;28;20030;-57
2024/02/28 11:06:27;;;;;;;39.85;18.42;;;;;;;;;;5052252;28;20262;-56
2024/02/28 11:08:56;;;;;;;;;;;;;;;;;;5051283;28;20041;-58
2024/02/28 11:11:22;;;;;;;44.83;19.87;;;;;;;;;;5051988;28;19919;-58
2024/02/28 11:13:54;;;;;;;46.37;21.07;;;;;;;;;;5049451;28;20302;-57
2024/02/28 11:16:26;;;;;;;43.87;20.03;;;;;;;;;;5050917;28;20044;-59
2024/02/28 11:18:51;;;;;;;42.50;18.80;;;;;;;;;;5050997;28;20275;-57
2024/02/28 11:21:17;;;;;;;47.35;20.45;;;;;;;;;;5051013;28;20266;-58
2024/02/28 11:23:46;;;;;;;48.17;19.80;;;;;;;;;;5051831;28;20033;-57
2024/02/28 11:26:13;;;;;;;52.43;20.27;;;;;;;;;;5049560;28;20033;-55
2024/02/28 11:28:39;;;;;;;42.88;19.75;;;;;;;;;;5051749;28;20285;-58
2024/02/28 11:31:05;;;;;;;51.08;20.15;;;;;;;;;;5051061;28;20041;-57
2024/02/28 11:33:30;;;;;;;51.17;19.63;;;;;;;;;;5051237;28;20034;-60
2024/02/28 11:35:59;;;;;;;40.77;19.20;;;;;;;;;;5051155;28;20034;-59
2024/02/28 11:38:27;;;;;;;47.07;19.57;;;;;;;;;;5050664;28;20049;-57
2024/02/28 11:40:55;;;;;;;41.70;17.50;;;;;;;;;;5051891;28;20251;-58
2024/02/28 11:43:20;;;;;;;32.73;16.53;;;;;;;;;;5050858;28;20263;-59
2024/02/28 11:45:46;;;;;;;36.30;18.37;;;;;;;;;;5051350;28;20277;-60
2024/02/28 11:48:11;;;;;;;;;;;;;;;;;;5050341;28;20324;-59
2024/02/28 11:50:37;;;;;;;38.58;18.17;;;;;;;;;;5052159;28;20581;-57
2024/02/28 11:53:04;;;;;;;38.35;17.17;;;;;;;;;;5051741;28;20041;-59
2024/02/28 11:55:30;;;;;;;34.67;17.43;;;;;;;;;;5052555;28;20037;-56
2024/02/28 11:57:55;;;;;;;39.27;18.40;;;;;;;;;;5052288;28;20267;-57
2024/02/28 12:00:20;;;;;;;32.10;18.50;;;;;;;;;;5051187;28;20075;-59
2024/02/28 12:02:46;;;;;;;40.43;18.13;;;;;;;;;;5052076;28;20030;-58
2024/02/28 12:05:11;;;;;;;42.27;19.50;;;;;;;;;;5050350;28;20033;-58
2024/02/28 12:07:37;;;;;;;35.80;19.38;;;;;;;;;;5050115;28;20048;-59
2024/02/28 12:10:02;;;;;;;37.95;18.02;;;;;;;;;;5051988;28;20037;-60
2024/02/28 12:12:28;;;;;;;43.53;17.45;;;;;;;;;;5051327;28;20093;-57
2024/02/28 12:14:57;;;;;;;34.17;15.93;;;;;;;;;;5051998;28;20129;-57
2024/02/28 12:17:24;;;;;;;36.93;19.10;;;;;;;;;;5049391;28;20034;-57
2024/02/28 12:19:49;;;;;;;34.77;17.87;;;;;;;;;;5049314;28;20709;-59
2024/02/28 12:22:16;;;;;;;36.28;17.70;;;;;;;;;;5050422;28;20291;-57
2024/02/28 12:24:42;;;;;;;32.10;16.35;;;;;;;;;;5050418;28;20041;-59
2024/02/28 12:27:07;;;;;;;35.30;17.03;;;;;;;;;;5049710;28;20034;-58
2024/02/28 12:29:33;;;;;;;40.75;17.55;;;;;;;;;;5050974;28;20029;-60
2024/02/28 12:31:58;;;;;;;37.83;18.83;;;;;;;;;;5050271;28;20030;-56
2024/02/28 12:34:24;;;;;;;39.88;18.13;;;;;;;;;;5050980;28;20029;-59
2024/02/28 12:36:49;;;;;;;44.50;18.47;;;;;;;;;;5049257;28;20060;-55
2024/02/28 12:39:15;;;;;;;35.90;17.90;;;;;;;;;;5050359;28;20049;-57
2024/02/28 12:41:40;;;;;;;32.88;16.25;;;;;;;;;;5050020;28;20064;-59
2024/02/28 12:44:06;;;;;;;30.33;16.13;;;;;;;;;;5049706;28;20025;-57
2024/02/28 12:46:31;;;;;;;34.33;14.83;;;;;;;;;;5050077;28;20038;-60
2024/02/28 12:48:57;;;;;;;35.45;15.77;;;;;;;;;;5052044;28;20734;-57
2024/02/28 12:51:42;;;;;;;28.90;15.70;;;;;;;;;;5049157;28;20049;-56
2024/02/28 12:54:07;;;;;;;33.73;14.23;;;;;;;;;;5049753;28;20052;-59
2024/02/28 12:56:33;;;;;;;33.40;14.73;;;;;;;;;;5055607;28;20294;-59
2024/02/28 12:58:58;;;;;;;34.97;14.98;;;;;;;;;;5052300;28;20026;-58
2024/02/28 13:01:25;;;;;;;28.70;14.07;;;;;;;;;;5051941;28;20039;-56
2024/02/28 13:03:51;;;;;;;31.08;15.85;;;;;;;;;;5057627;28;20067;-58
2024/02/28 13:06:16;;;;;;;29.47;13.53;;;;;;;;;;5052722;28;20034;-57
2024/02/28 13:08:41;;;;;;;29.90;14.83;;;;;;;;;;5053390;28;20279;-58
2024/02/28 13:11:07;;;;;;;27.85;14.05;;;;;;;;;;5054717;28;20036;-58
2024/02/28 13:13:33;;;;;;;29.10;14.67;;;;;;;;;;5055076;28;20058;-58
2024/02/28 13:15:58;;;;;;;28.13;13.93;;;;;;;;;;5055519;28;20300;-57
2024/02/28 13:18:25;;;;;;;28.05;13.95;;;;;;;;;;5055167;28;20072;-57
2024/02/28 13:20:51;;;;;;;;;;;;;;;;;;5054819;28;20044;-58
2024/02/28 13:23:16;;;;;;;31.20;14.00;;;;;;;;;;5059140;28;19948;-58
2024/02/28 13:25:42;;;;;;;24.80;13.88;;;;;;;;;;5052367;28;20037;-57
2024/02/28 13:28:07;;;;;;;29.35;15.18;;;;;;;;;;5054523;28;20071;-58
2024/02/28 13:30:36;;;;;;;30.98;14.30;;;;;;;;;;5051510;28;20116;-58
2024/02/28 13:33:01;;;;;;;23.20;13.23;;;;;;;;;;5057902;28;20048;-58
2024/02/28 13:35:26;;;;;;;25.23;13.60;;;;;;;;;;5054185;28;20282;-58
2024/02/28 13:37:54;;;;;;;26.08;13.15;;;;;;;;;;5053514;28;20081;-58
2024/02/28 13:40:19;;;;;;;24.67;14.27;;;;;;;;;;5053691;28;20022;-58
2024/02/28 13:42:45;;;;;;;26.83;15.20;;;;;;;;;;5054216;28;20322;-59
2024/02/28 13:45:10;;;;;;;21.92;12.45;;;;;;;;;;5051344;28;21635;-58
2024/02/28 13:47:36;;;;;;;;;;;;;;;;;;5053131;28;20034;-57
2024/02/28 13:50:02;;;;;;;20.30;11.33;;;;;;;;;;5052717;28;19924;-59
2024/02/28 13:52:27;;;;;;;19.65;11.15;;;;;;;;;;5054951;28;20043;-59
2024/02/28 13:54:54;;;;;;;20.77;11.07;;;;;;;;;;5058677;28;20072;-58
2024/02/28 13:57:19;;;;;;;20.40;11.70;;;;;;;;;;5059696;28;20032;-56
2024/02/28 13:59:48;;;;;;;23.70;13.30;;;;;;;;;;5055362;28;20089;-58
2024/02/28 14:02:15;;;;;;;25.40;14.00;;;;;;;;;;5058558;28;20021;-58
2024/02/28 14:04:42;;;;;;;31.75;14.55;;;;;;;;;;5058136;28;20390;-56
2024/02/28 14:07:08;;;;;;;26.33;13.73;;;;;;;;;;5058646;28;20035;-57
2024/02/28 14:09:33;;;;;;;25.67;13.50;;;;;;;;;;5058703;28;20270;-56
2024/02/28 14:11:58;;;;;;;24.00;13.43;;;;;;;;;;5058392;28;20296;-59